sensor_id;sensor_type;location;lat;lon;timestamp;P1;durP1;ratioP1;P2;durP2;ratioP2
1460;SDS011;724;49.910;12.530;2022-07-31T00:02:01;0.70;;;0.60;;
1460;SDS011;724;49.910;12.530;2022-07-31T00:04:29;0.50;;;0.40;;
1460;SDS011;724;49.910;12.530;2022-07-31T00:06:56;0.60;;;0.50;;
1460;SDS011;724;49.910;12.530;2022-07-31T00:09:22;0.50;;;0.40;;
1460;SDS011;724;49.910;12.530;2022-07-31T00:11:49;0.40;;;0.30;;
1460;SDS011;724;49.910;12.530;2022-07-31T00:14:16;0.40;;;0.30;;
1460;SDS011;724;49.910;12.530;2022-07-31T00:16:42;0.40;;;0.30;;
1460;SDS011;724;49.910;12.530;2022-07-31T00:19:09;0.40;;;0.30;;
1460;SDS011;724;49.910;12.530;2022-07-31T00:21:37;0.40;;;0.30;;
1460;SDS011;724;49.910;12.530;2022-07-31T00:24:04;0.40;;;0.30;;
1460;SDS011;724;49.910;12.530;2022-07-31T00:26:31;0.40;;;0.30;;
1460;SDS011;724;49.910;12.530;2022-07-31T00:28:58;0.40;;;0.30;;
1460;SDS011;724;49.910;12.530;2022-07-31T00:31:24;0.40;;;0.30;;
1460;SDS011;724;49.910;12.530;2022-07-31T00:33:51;0.50;;;0.40;;
1460;SDS011;724;49.910;12.530;2022-07-31T00:36:18;0.47;;;0.37;;
1460;SDS011;724;49.910;12.530;2022-07-31T00:38:46;0.40;;;0.30;;
1460;SDS011;724;49.910;12.530;2022-07-31T00:41:12;0.50;;;0.40;;
1460;SDS011;724;49.910;12.530;2022-07-31T00:43:39;0.50;;;0.40;;
1460;SDS011;724;49.910;12.530;2022-07-31T00:46:06;0.50;;;0.40;;
1460;SDS011;724;49.910;12.530;2022-07-31T00:48:33;0.50;;;0.40;;
1460;SDS011;724;49.910;12.530;2022-07-31T00:50:59;0.45;;;0.35;;
1460;SDS011;724;49.910;12.530;2022-07-31T00:53:26;0.50;;;0.40;;
1460;SDS011;724;49.910;12.530;2022-07-31T00:55:54;0.50;;;0.40;;
1460;SDS011;724;49.910;12.530;2022-07-31T00:58:22;0.50;;;0.40;;
1460;SDS011;724;49.910;12.530;2022-07-31T01:00:49;0.60;;;0.50;;
1460;SDS011;724;49.910;12.530;2022-07-31T01:03:15;0.50;;;0.40;;
1460;SDS011;724;49.910;12.530;2022-07-31T01:05:43;0.60;;;0.50;;
1460;SDS011;724;49.910;12.530;2022-07-31T01:08:10;0.60;;;0.50;;
1460;SDS011;724;49.910;12.530;2022-07-31T01:10:39;0.65;;;0.55;;
1460;SDS011;724;49.910;12.530;2022-07-31T01:13:20;0.60;;;0.50;;
1460;SDS011;724;49.910;12.530;2022-07-31T01:15:52;0.60;;;0.50;;
1460;SDS011;724;49.910;12.530;2022-07-31T01:18:22;0.60;;;0.50;;
1460;SDS011;724;49.910;12.530;2022-07-31T01:20:51;0.50;;;0.40;;
1460;SDS011;724;49.910;12.530;2022-07-31T01:23:30;0.50;;;0.40;;
1460;SDS011;724;49.910;12.530;2022-07-31T01:26:17;0.40;;;0.30;;
1460;SDS011;724;49.910;12.530;2022-07-31T01:28:59;0.40;;;0.30;;
1460;SDS011;724;49.910;12.530;2022-07-31T01:31:32;0.50;;;0.40;;
1460;SDS011;724;49.910;12.530;2022-07-31T01:34:02;0.43;;;0.32;;
1460;SDS011;724;49.910;12.530;2022-07-31T01:36:38;0.30;;;0.20;;
1460;SDS011;724;49.910;12.530;2022-07-31T01:39:11;0.30;;;0.20;;
1460;SDS011;724;49.910;12.530;2022-07-31T01:41:39;0.20;;;0.10;;
1460;SDS011;724;49.910;12.530;2022-07-31T01:44:11;0.20;;;0.10;;
1460;SDS011;724;49.910;12.530;2022-07-31T01:46:40;0.20;;;0.10;;
1460;SDS011;724;49.910;12.530;2022-07-31T01:49:08;0.20;;;0.10;;
1460;SDS011;724;49.910;12.530;2022-07-31T01:51:37;0.00;;;0.00;;
1460;SDS011;724;49.910;12.530;2022-07-31T01:54:05;0.00;;;0.00;;
1460;SDS011;724;49.910;12.530;2022-07-31T01:56:32;0.20;;;0.10;;
1460;SDS011;724;49.910;12.530;2022-07-31T01:59:00;0.00;;;0.00;;
1460;SDS011;724;49.910;12.530;2022-07-31T02:01:30;0.00;;;0.00;;
1460;SDS011;724;49.910;12.530;2022-07-31T02:03:59;0.00;;;0.00;;
1460;SDS011;724;49.910;12.530;2022-07-31T02:06:26;0.00;;;0.00;;
1460;SDS011;724;49.910;12.530;2022-07-31T02:08:54;0.00;;;0.00;;
1460;SDS011;724;49.910;12.530;2022-07-31T02:11:21;0.00;;;0.00;;
1460;SDS011;724;49.910;12.530;2022-07-31T02:13:49;0.20;;;0.10;;
1460;SDS011;724;49.910;12.530;2022-07-31T02:16:17;0.20;;;0.10;;
1460;SDS011;724;49.910;12.530;2022-07-31T02:18:46;0.20;;;0.10;;
1460;SDS011;724;49.910;12.530;2022-07-31T02:21:14;0.30;;;0.20;;
1460;SDS011;724;49.910;12.530;2022-07-31T02:23:41;0.30;;;0.20;;
1460;SDS011;724;49.910;12.530;2022-07-31T02:26:08;0.60;;;0.50;;
1460;SDS011;724;49.910;12.530;2022-07-31T02:28:36;0.80;;;0.70;;
1460;SDS011;724;49.910;12.530;2022-07-31T02:31:07;0.70;;;0.60;;
1460;SDS011;724;49.910;12.530;2022-07-31T02:33:36;0.60;;;0.50;;
1460;SDS011;724;49.910;12.530;2022-07-31T02:36:06;0.80;;;0.70;;
1460;SDS011;724;49.910;12.530;2022-07-31T02:38:35;0.50;;;0.40;;
1460;SDS011;724;49.910;12.530;2022-07-31T02:41:04;0.32;;;0.22;;
1460;SDS011;724;49.910;12.530;2022-07-31T02:43:32;0.30;;;0.20;;
1460;SDS011;724;49.910;12.530;2022-07-31T02:46:01;0.20;;;0.10;;
1460;SDS011;724;49.910;12.530;2022-07-31T02:48:29;0.20;;;0.10;;
1460;SDS011;724;49.910;12.530;2022-07-31T02:50:57;0.20;;;0.10;;
1460;SDS011;724;49.910;12.530;2022-07-31T02:53:26;0.20;;;0.10;;
1460;SDS011;724;49.910;12.530;2022-07-31T02:55:53;0.00;;;0.00;;
1460;SDS011;724;49.910;12.530;2022-07-31T02:58:20;0.00;;;0.00;;
1460;SDS011;724;49.910;12.530;2022-07-31T03:00:56;0.00;;;0.00;;
1460;SDS011;724;49.910;12.530;2022-07-31T03:03:24;0.00;;;0.00;;
1460;SDS011;724;49.910;12.530;2022-07-31T03:05:50;0.00;;;0.00;;
1460;SDS011;724;49.910;12.530;2022-07-31T03:08:17;0.00;;;0.00;;
1460;SDS011;724;49.910;12.530;2022-07-31T03:10:45;0.00;;;0.00;;
1460;SDS011;724;49.910;12.530;2022-07-31T03:13:12;0.00;;;0.00;;
1460;SDS011;724;49.910;12.530;2022-07-31T03:15:41;0.00;;;0.00;;
1460;SDS011;724;49.910;12.530;2022-07-31T03:18:09;0.00;;;0.00;;
1460;SDS011;724;49.910;12.530;2022-07-31T03:20:39;0.00;;;0.00;;
1460;SDS011;724;49.910;12.530;2022-07-31T03:23:06;0.00;;;0.00;;
1460;SDS011;724;49.910;12.530;2022-07-31T03:25:35;0.00;;;0.00;;
1460;SDS011;724;49.910;12.530;2022-07-31T03:28:03;0.00;;;0.00;;
1460;SDS011;724;49.910;12.530;2022-07-31T03:30:30;0.00;;;0.00;;
1460;SDS011;724;49.910;12.530;2022-07-31T03:32:57;0.00;;;0.00;;
1460;SDS011;724;49.910;12.530;2022-07-31T03:35:26;0.00;;;0.00;;
1460;SDS011;724;49.910;12.530;2022-07-31T03:37:53;0.00;;;0.00;;
1460;SDS011;724;49.910;12.530;2022-07-31T03:40:20;0.00;;;0.00;;
1460;SDS011;724;49.910;12.530;2022-07-31T03:42:47;0.00;;;0.00;;
1460;SDS011;724;49.910;12.530;2022-07-31T03:45:16;0.00;;;0.00;;
1460;SDS011;724;49.910;12.530;2022-07-31T03:47:44;0.00;;;0.00;;
1460;SDS011;724;49.910;12.530;2022-07-31T03:50:11;0.00;;;0.00;;
1460;SDS011;724;49.910;12.530;2022-07-31T03:52:39;0.00;;;0.00;;
1460;SDS011;724;49.910;12.530;2022-07-31T03:55:06;0.00;;;0.00;;
1460;SDS011;724;49.910;12.530;2022-07-31T03:57:34;0.00;;;0.00;;
1460;SDS011;724;49.910;12.530;2022-07-31T04:00:03;0.00;;;0.00;;
1460;SDS011;724;49.910;12.530;2022-07-31T04:02:32;0.00;;;0.00;;
1460;SDS011;724;49.910;12.530;2022-07-31T04:04:59;0.00;;;0.00;;
1460;SDS011;724;49.910;12.530;2022-07-31T04:07:27;0.00;;;0.00;;
1460;SDS011;724;49.910;12.530;2022-07-31T04:09:54;0.00;;;0.00;;
1460;SDS011;724;49.910;12.530;2022-07-31T04:12:20;0.00;;;0.00;;
1460;SDS011;724;49.910;12.530;2022-07-31T04:14:47;0.00;;;0.00;;
1460;SDS011;724;49.910;12.530;2022-07-31T04:17:14;0.00;;;0.00;;
1460;SDS011;724;49.910;12.530;2022-07-31T04:19:42;0.00;;;0.00;;
1460;SDS011;724;49.910;12.530;2022-07-31T04:22:09;0.00;;;0.00;;
1460;SDS011;724;49.910;12.530;2022-07-31T04:24:35;0.00;;;0.00;;
1460;SDS011;724;49.910;12.530;2022-07-31T04:27:02;0.00;;;0.00;;
1460;SDS011;724;49.910;12.530;2022-07-31T04:29:29;0.00;;;0.00;;
1460;SDS011;724;49.910;12.530;2022-07-31T04:31:56;0.00;;;0.00;;
1460;SDS011;724;49.910;12.530;2022-07-31T04:34:23;0.00;;;0.00;;
1460;SDS011;724;49.910;12.530;2022-07-31T04:36:51;0.00;;;0.00;;
1460;SDS011;724;49.910;12.530;2022-07-31T04:39:17;0.00;;;0.00;;
1460;SDS011;724;49.910;12.530;2022-07-31T04:41:44;0.00;;;0.00;;
1460;SDS011;724;49.910;12.530;2022-07-31T04:44:11;0.00;;;0.00;;
1460;SDS011;724;49.910;12.530;2022-07-31T04:46:37;0.00;;;0.00;;
1460;SDS011;724;49.910;12.530;2022-07-31T04:49:04;0.00;;;0.00;;
1460;SDS011;724;49.910;12.530;2022-07-31T04:51:31;0.00;;;0.00;;
1460;SDS011;724;49.910;12.530;2022-07-31T04:53:59;0.00;;;0.00;;
1460;SDS011;724;49.910;12.530;2022-07-31T04:56:25;0.00;;;0.00;;
1460;SDS011;724;49.910;12.530;2022-07-31T04:59:00;0.00;;;0.00;;
1460;SDS011;724;49.910;12.530;2022-07-31T05:01:28;0.00;;;0.00;;
1460;SDS011;724;49.910;12.530;2022-07-31T05:03:56;0.00;;;0.00;;
1460;SDS011;724;49.910;12.530;2022-07-31T05:06:30;0.00;;;0.00;;
1460;SDS011;724;49.910;12.530;2022-07-31T05:08:59;0.00;;;0.00;;
1460;SDS011;724;49.910;12.530;2022-07-31T05:11:26;0.00;;;0.00;;
1460;SDS011;724;49.910;12.530;2022-07-31T05:13:54;0.00;;;0.00;;
1460;SDS011;724;49.910;12.530;2022-07-31T05:16:22;0.00;;;0.00;;
1460;SDS011;724;49.910;12.530;2022-07-31T05:18:49;0.00;;;0.00;;
1460;SDS011;724;49.910;12.530;2022-07-31T05:21:17;0.00;;;0.00;;
1460;SDS011;724;49.910;12.530;2022-07-31T05:23:44;0.00;;;0.00;;
1460;SDS011;724;49.910;12.530;2022-07-31T05:26:14;0.00;;;0.00;;
1460;SDS011;724;49.910;12.530;2022-07-31T05:28:41;0.00;;;0.00;;
1460;SDS011;724;49.910;12.530;2022-07-31T05:31:09;0.00;;;0.00;;
1460;SDS011;724;49.910;12.530;2022-07-31T05:33:35;0.00;;;0.00;;
1460;SDS011;724;49.910;12.530;2022-07-31T05:36:02;0.00;;;0.00;;
1460;SDS011;724;49.910;12.530;2022-07-31T05:38:30;0.20;;;0.10;;
1460;SDS011;724;49.910;12.530;2022-07-31T05:40:57;0.30;;;0.20;;
1460;SDS011;724;49.910;12.530;2022-07-31T05:43:25;0.40;;;0.30;;
1460;SDS011;724;49.910;12.530;2022-07-31T05:45:51;0.40;;;0.30;;
1460;SDS011;724;49.910;12.530;2022-07-31T05:48:18;0.80;;;0.70;;
1460;SDS011;724;49.910;12.530;2022-07-31T05:50:45;0.90;;;0.80;;
1460;SDS011;724;49.910;12.530;2022-07-31T05:53:13;1.10;;;1.00;;
1460;SDS011;724;49.910;12.530;2022-07-31T05:55:40;1.40;;;1.30;;
1460;SDS011;724;49.910;12.530;2022-07-31T05:58:08;1.70;;;1.60;;
1460;SDS011;724;49.910;12.530;2022-07-31T06:00:36;1.80;;;1.70;;
1460;SDS011;724;49.910;12.530;2022-07-31T06:03:04;2.37;;;2.17;;
1460;SDS011;724;49.910;12.530;2022-07-31T06:05:31;2.40;;;2.20;;
1460;SDS011;724;49.910;12.530;2022-07-31T06:07:58;3.60;;;3.40;;
1460;SDS011;724;49.910;12.530;2022-07-31T06:10:25;4.10;;;3.90;;
1460;SDS011;724;49.910;12.530;2022-07-31T06:12:53;4.60;;;4.30;;
1460;SDS011;724;49.910;12.530;2022-07-31T06:15:20;4.83;;;4.53;;
1460;SDS011;724;49.910;12.530;2022-07-31T06:17:48;5.40;;;5.10;;
1460;SDS011;724;49.910;12.530;2022-07-31T06:20:15;5.60;;;5.30;;
1460;SDS011;724;49.910;12.530;2022-07-31T06:22:42;6.00;;;5.70;;
1460;SDS011;724;49.910;12.530;2022-07-31T06:25:09;5.90;;;5.60;;
1460;SDS011;724;49.910;12.530;2022-07-31T06:27:36;6.60;;;6.20;;
1460;SDS011;724;49.910;12.530;2022-07-31T06:30:04;6.60;;;6.20;;
1460;SDS011;724;49.910;12.530;2022-07-31T06:32:32;6.60;;;6.20;;
1460;SDS011;724;49.910;12.530;2022-07-31T06:35:01;7.00;;;6.60;;
1460;SDS011;724;49.910;12.530;2022-07-31T06:37:28;7.10;;;6.70;;
1460;SDS011;724;49.910;12.530;2022-07-31T06:39:55;6.93;;;6.53;;
1460;SDS011;724;49.910;12.530;2022-07-31T06:42:23;7.00;;;6.60;;
1460;SDS011;724;49.910;12.530;2022-07-31T06:44:52;6.33;;;5.97;;
1460;SDS011;724;49.910;12.530;2022-07-31T06:47:20;6.40;;;6.00;;
1460;SDS011;724;49.910;12.530;2022-07-31T06:49:50;6.00;;;5.70;;
1460;SDS011;724;49.910;12.530;2022-07-31T06:52:19;6.20;;;5.90;;
1460;SDS011;724;49.910;12.530;2022-07-31T06:54:46;6.27;;;5.93;;
1460;SDS011;724;49.910;12.530;2022-07-31T06:57:13;6.00;;;5.70;;
1460;SDS011;724;49.910;12.530;2022-07-31T06:59:41;6.00;;;5.70;;
1460;SDS011;724;49.910;12.530;2022-07-31T07:02:08;6.03;;;5.73;;
1460;SDS011;724;49.910;12.530;2022-07-31T07:04:35;5.80;;;5.50;;
1460;SDS011;724;49.910;12.530;2022-07-31T07:07:01;5.83;;;5.53;;
1460;SDS011;724;49.910;12.530;2022-07-31T07:09:29;5.90;;;5.60;;
1460;SDS011;724;49.910;12.530;2022-07-31T07:11:56;5.83;;;5.53;;
1460;SDS011;724;49.910;12.530;2022-07-31T07:14:23;5.80;;;5.50;;
1460;SDS011;724;49.910;12.530;2022-07-31T07:16:50;5.60;;;5.30;;
1460;SDS011;724;49.910;12.530;2022-07-31T07:19:17;5.50;;;5.20;;
1460;SDS011;724;49.910;12.530;2022-07-31T07:21:44;5.60;;;5.30;;
1460;SDS011;724;49.910;12.530;2022-07-31T07:24:11;5.60;;;5.30;;
1460;SDS011;724;49.910;12.530;2022-07-31T07:26:39;5.70;;;5.40;;
1460;SDS011;724;49.910;12.530;2022-07-31T07:29:06;5.10;;;4.80;;
1460;SDS011;724;49.910;12.530;2022-07-31T07:31:34;5.20;;;4.90;;
1460;SDS011;724;49.910;12.530;2022-07-31T07:34:01;5.20;;;4.90;;
1460;SDS011;724;49.910;12.530;2022-07-31T07:36:30;5.30;;;5.00;;
1460;SDS011;724;49.910;12.530;2022-07-31T07:38:57;5.63;;;5.33;;
1460;SDS011;724;49.910;12.530;2022-07-31T07:41:23;5.10;;;4.80;;
1460;SDS011;724;49.910;12.530;2022-07-31T07:43:52;5.10;;;4.80;;
1460;SDS011;724;49.910;12.530;2022-07-31T07:46:19;5.50;;;5.20;;
1460;SDS011;724;49.910;12.530;2022-07-31T07:48:47;5.40;;;5.10;;
1460;SDS011;724;49.910;12.530;2022-07-31T07:51:14;5.30;;;5.00;;
1460;SDS011;724;49.910;12.530;2022-07-31T07:53:41;5.40;;;5.10;;
1460;SDS011;724;49.910;12.530;2022-07-31T07:56:08;5.70;;;5.40;;
1460;SDS011;724;49.910;12.530;2022-07-31T07:58:35;5.60;;;5.30;;
1460;SDS011;724;49.910;12.530;2022-07-31T08:01:03;6.10;;;5.80;;
1460;SDS011;724;49.910;12.530;2022-07-31T08:03:29;5.80;;;5.50;;
1460;SDS011;724;49.910;12.530;2022-07-31T08:05:56;5.80;;;5.50;;
1460;SDS011;724;49.910;12.530;2022-07-31T08:08:23;6.10;;;5.80;;
1460;SDS011;724;49.910;12.530;2022-07-31T08:10:50;6.20;;;5.90;;
1460;SDS011;724;49.910;12.530;2022-07-31T08:13:16;6.00;;;5.70;;
1460;SDS011;724;49.910;12.530;2022-07-31T08:15:43;6.00;;;5.70;;
1460;SDS011;724;49.910;12.530;2022-07-31T08:18:11;6.17;;;5.87;;
1460;SDS011;724;49.910;12.530;2022-07-31T08:20:38;6.60;;;6.20;;
1460;SDS011;724;49.910;12.530;2022-07-31T08:23:05;6.53;;;6.13;;
1460;SDS011;724;49.910;12.530;2022-07-31T08:25:31;6.47;;;6.07;;
1460;SDS011;724;49.910;12.530;2022-07-31T08:27:58;6.50;;;6.10;;
1460;SDS011;724;49.910;12.530;2022-07-31T08:30:25;6.60;;;6.20;;
1460;SDS011;724;49.910;12.530;2022-07-31T08:32:52;6.70;;;6.30;;
1460;SDS011;724;49.910;12.530;2022-07-31T08:35:20;7.10;;;6.70;;
1460;SDS011;724;49.910;12.530;2022-07-31T08:37:46;7.10;;;6.70;;
1460;SDS011;724;49.910;12.530;2022-07-31T08:40:14;7.20;;;6.80;;
1460;SDS011;724;49.910;12.530;2022-07-31T08:42:43;6.70;;;6.30;;
1460;SDS011;724;49.910;12.530;2022-07-31T08:45:11;6.70;;;6.30;;
1460;SDS011;724;49.910;12.530;2022-07-31T08:47:38;6.77;;;6.37;;
1460;SDS011;724;49.910;12.530;2022-07-31T08:50:09;6.27;;;5.93;;
1460;SDS011;724;49.910;12.530;2022-07-31T08:52:40;6.60;;;6.20;;
1460;SDS011;724;49.910;12.530;2022-07-31T08:55:09;7.10;;;6.70;;
1460;SDS011;724;49.910;12.530;2022-07-31T08:57:36;7.10;;;6.70;;
1460;SDS011;724;49.910;12.530;2022-07-31T09:00:04;7.50;;;7.10;;
1460;SDS011;724;49.910;12.530;2022-07-31T09:02:32;7.47;;;7.07;;
1460;SDS011;724;49.910;12.530;2022-07-31T09:04:59;6.60;;;6.20;;
1460;SDS011;724;49.910;12.530;2022-07-31T09:07:25;7.50;;;7.10;;
1460;SDS011;724;49.910;12.530;2022-07-31T09:09:53;7.40;;;7.00;;
1460;SDS011;724;49.910;12.530;2022-07-31T09:12:27;7.50;;;7.10;;
1460;SDS011;724;49.910;12.530;2022-07-31T09:14:55;7.60;;;7.20;;
1460;SDS011;724;49.910;12.530;2022-07-31T09:17:29;7.10;;;6.70;;
1460;SDS011;724;49.910;12.530;2022-07-31T09:20:00;7.50;;;7.10;;
1460;SDS011;724;49.910;12.530;2022-07-31T09:22:28;7.37;;;6.97;;
1460;SDS011;724;49.910;12.530;2022-07-31T09:27:43;7.00;;;6.60;;
1460;SDS011;724;49.910;12.530;2022-07-31T09:30:10;7.40;;;7.00;;
1460;SDS011;724;49.910;12.530;2022-07-31T09:32:37;7.50;;;7.10;;
1460;SDS011;724;49.910;12.530;2022-07-31T09:35:08;7.23;;;6.83;;
1460;SDS011;724;49.910;12.530;2022-07-31T09:37:36;6.90;;;6.50;;
1460;SDS011;724;49.910;12.530;2022-07-31T09:40:04;7.50;;;7.10;;
1460;SDS011;724;49.910;12.530;2022-07-31T09:42:35;7.30;;;6.90;;
1460;SDS011;724;49.910;12.530;2022-07-31T09:45:14;6.90;;;6.50;;
1460;SDS011;724;49.910;12.530;2022-07-31T09:47:43;6.87;;;6.47;;
1460;SDS011;724;49.910;12.530;2022-07-31T09:50:10;6.60;;;6.20;;
1460;SDS011;724;49.910;12.530;2022-07-31T09:52:36;6.80;;;6.40;;
1460;SDS011;724;49.910;12.530;2022-07-31T09:55:04;6.90;;;6.50;;
1460;SDS011;724;49.910;12.530;2022-07-31T09:57:32;6.60;;;6.20;;
1460;SDS011;724;49.910;12.530;2022-07-31T10:00:01;6.70;;;6.30;;
1460;SDS011;724;49.910;12.530;2022-07-31T10:02:29;7.13;;;6.73;;
1460;SDS011;724;49.910;12.530;2022-07-31T10:04:57;7.50;;;7.10;;
1460;SDS011;724;49.910;12.530;2022-07-31T10:07:24;7.30;;;6.90;;
1460;SDS011;724;49.910;12.530;2022-07-31T10:09:53;6.73;;;6.33;;
1460;SDS011;724;49.910;12.530;2022-07-31T10:12:22;6.70;;;6.30;;
1460;SDS011;724;49.910;12.530;2022-07-31T10:14:52;6.50;;;6.10;;
1460;SDS011;724;49.910;12.530;2022-07-31T10:17:26;7.20;;;6.80;;
1460;SDS011;724;49.910;12.530;2022-07-31T10:19:56;6.80;;;6.40;;
1460;SDS011;724;49.910;12.530;2022-07-31T10:22:28;7.03;;;6.63;;
1460;SDS011;724;49.910;12.530;2022-07-31T10:24:57;6.93;;;6.53;;
1460;SDS011;724;49.910;12.530;2022-07-31T10:27:27;7.00;;;6.60;;
1460;SDS011;724;49.910;12.530;2022-07-31T10:29:54;7.53;;;7.13;;
1460;SDS011;724;49.910;12.530;2022-07-31T10:32:21;6.90;;;6.50;;
1460;SDS011;724;49.910;12.530;2022-07-31T10:34:50;7.60;;;7.20;;
1460;SDS011;724;49.910;12.530;2022-07-31T10:37:18;7.60;;;7.20;;
1460;SDS011;724;49.910;12.530;2022-07-31T10:39:48;7.40;;;7.00;;
1460;SDS011;724;49.910;12.530;2022-07-31T10:42:24;7.00;;;6.60;;
1460;SDS011;724;49.910;12.530;2022-07-31T10:45:02;8.13;;;7.73;;
1460;SDS011;724;49.910;12.530;2022-07-31T10:47:31;7.80;;;7.40;;
1460;SDS011;724;49.910;12.530;2022-07-31T10:49:59;8.10;;;7.70;;
1460;SDS011;724;49.910;12.530;2022-07-31T10:52:27;8.10;;;7.70;;
1460;SDS011;724;49.910;12.530;2022-07-31T10:54:54;8.13;;;7.73;;
1460;SDS011;724;49.910;12.530;2022-07-31T10:57:23;8.10;;;7.70;;
1460;SDS011;724;49.910;12.530;2022-07-31T10:59:51;7.30;;;6.90;;
1460;SDS011;724;49.910;12.530;2022-07-31T11:02:27;7.60;;;7.20;;
1460;SDS011;724;49.910;12.530;2022-07-31T11:05:07;8.37;;;7.93;;
1460;SDS011;724;49.910;12.530;2022-07-31T11:07:35;7.40;;;7.00;;
1460;SDS011;724;49.910;12.530;2022-07-31T11:10:11;6.77;;;6.37;;
1460;SDS011;724;49.910;12.530;2022-07-31T11:12:40;6.90;;;6.50;;
1460;SDS011;724;49.910;12.530;2022-07-31T11:15:20;7.00;;;6.60;;
1460;SDS011;724;49.910;12.530;2022-07-31T11:17:49;7.00;;;6.60;;
1460;SDS011;724;49.910;12.530;2022-07-31T11:20:18;7.47;;;7.07;;
1460;SDS011;724;49.910;12.530;2022-07-31T11:22:52;7.70;;;7.30;;
1460;SDS011;724;49.910;12.530;2022-07-31T11:25:24;7.20;;;6.80;;
1460;SDS011;724;49.910;12.530;2022-07-31T11:27:53;7.30;;;6.90;;
1460;SDS011;724;49.910;12.530;2022-07-31T11:30:20;7.20;;;6.80;;
1460;SDS011;724;49.910;12.530;2022-07-31T11:32:48;6.90;;;6.50;;
1460;SDS011;724;49.910;12.530;2022-07-31T11:35:24;6.13;;;5.83;;
1460;SDS011;724;49.910;12.530;2022-07-31T11:37:52;6.33;;;5.97;;
1460;SDS011;724;49.910;12.530;2022-07-31T11:40:19;6.97;;;6.57;;
1460;SDS011;724;49.910;12.530;2022-07-31T11:42:46;7.17;;;6.77;;
1460;SDS011;724;49.910;12.530;2022-07-31T11:45:13;7.27;;;6.87;;
1460;SDS011;724;49.910;12.530;2022-07-31T11:47:41;6.70;;;6.30;;
1460;SDS011;724;49.910;12.530;2022-07-31T11:50:10;6.80;;;6.40;;
1460;SDS011;724;49.910;12.530;2022-07-31T11:52:39;6.60;;;6.20;;
1460;SDS011;724;49.910;12.530;2022-07-31T11:55:08;6.37;;;6.00;;
1460;SDS011;724;49.910;12.530;2022-07-31T11:57:36;6.57;;;6.17;;
1460;SDS011;724;49.910;12.530;2022-07-31T12:00:10;6.50;;;6.10;;
1460;SDS011;724;49.910;12.530;2022-07-31T12:02:39;6.80;;;6.40;;
1460;SDS011;724;49.910;12.530;2022-07-31T12:05:07;7.10;;;6.70;;
1460;SDS011;724;49.910;12.530;2022-07-31T12:07:36;6.50;;;6.10;;
1460;SDS011;724;49.910;12.530;2022-07-31T12:10:05;7.00;;;6.60;;
1460;SDS011;724;49.910;12.530;2022-07-31T12:12:34;6.90;;;6.50;;
1460;SDS011;724;49.910;12.530;2022-07-31T12:15:11;6.87;;;6.47;;
1460;SDS011;724;49.910;12.530;2022-07-31T12:17:38;7.30;;;6.90;;
1460;SDS011;724;49.910;12.530;2022-07-31T12:20:05;6.50;;;6.10;;
1460;SDS011;724;49.910;12.530;2022-07-31T12:22:32;6.80;;;6.40;;
1460;SDS011;724;49.910;12.530;2022-07-31T12:25:01;6.50;;;6.10;;
1460;SDS011;724;49.910;12.530;2022-07-31T12:27:27;6.73;;;6.33;;
1460;SDS011;724;49.910;12.530;2022-07-31T12:29:54;7.00;;;6.60;;
1460;SDS011;724;49.910;12.530;2022-07-31T12:32:24;6.20;;;5.90;;
1460;SDS011;724;49.910;12.530;2022-07-31T12:34:59;6.50;;;6.10;;
1460;SDS011;724;49.910;12.530;2022-07-31T12:37:27;6.60;;;6.20;;
1460;SDS011;724;49.910;12.530;2022-07-31T12:39:55;6.70;;;6.30;;
1460;SDS011;724;49.910;12.530;2022-07-31T12:42:24;6.60;;;6.20;;
1460;SDS011;724;49.910;12.530;2022-07-31T12:44:52;6.40;;;6.00;;
1460;SDS011;724;49.910;12.530;2022-07-31T12:47:20;6.60;;;6.20;;
1460;SDS011;724;49.910;12.530;2022-07-31T12:49:47;6.20;;;5.90;;
1460;SDS011;724;49.910;12.530;2022-07-31T12:52:14;5.90;;;5.60;;
1460;SDS011;724;49.910;12.530;2022-07-31T12:54:41;6.00;;;5.70;;
1460;SDS011;724;49.910;12.530;2022-07-31T12:57:08;5.90;;;5.60;;
1460;SDS011;724;49.910;12.530;2022-07-31T12:59:36;6.90;;;6.50;;
1460;SDS011;724;49.910;12.530;2022-07-31T13:02:03;7.00;;;6.60;;
1460;SDS011;724;49.910;12.530;2022-07-31T13:04:30;7.07;;;6.67;;
1460;SDS011;724;49.910;12.530;2022-07-31T13:06:57;7.30;;;6.90;;
1460;SDS011;724;49.910;12.530;2022-07-31T13:09:24;6.70;;;6.30;;
1460;SDS011;724;49.910;12.530;2022-07-31T13:11:51;7.23;;;6.83;;
1460;SDS011;724;49.910;12.530;2022-07-31T13:14:19;7.07;;;6.67;;
1460;SDS011;724;49.910;12.530;2022-07-31T13:16:50;7.50;;;7.10;;
1460;SDS011;724;49.910;12.530;2022-07-31T13:19:19;7.60;;;7.20;;
1460;SDS011;724;49.910;12.530;2022-07-31T13:21:46;7.70;;;7.30;;
1460;SDS011;724;49.910;12.530;2022-07-31T13:24:14;7.47;;;7.07;;
1460;SDS011;724;49.910;12.530;2022-07-31T13:26:40;7.60;;;7.20;;
1460;SDS011;724;49.910;12.530;2022-07-31T13:29:09;7.60;;;7.20;;
1460;SDS011;724;49.910;12.530;2022-07-31T13:31:36;7.30;;;6.90;;
1460;SDS011;724;49.910;12.530;2022-07-31T13:34:04;7.60;;;7.20;;
1460;SDS011;724;49.910;12.530;2022-07-31T13:36:31;7.33;;;6.93;;
1460;SDS011;724;49.910;12.530;2022-07-31T13:38:58;7.60;;;7.20;;
1460;SDS011;724;49.910;12.530;2022-07-31T13:41:25;7.20;;;6.80;;
1460;SDS011;724;49.910;12.530;2022-07-31T13:43:55;7.20;;;6.80;;
1460;SDS011;724;49.910;12.530;2022-07-31T13:46:23;7.10;;;6.70;;
1460;SDS011;724;49.910;12.530;2022-07-31T13:48:51;7.27;;;6.87;;
1460;SDS011;724;49.910;12.530;2022-07-31T13:51:21;7.40;;;7.00;;
1460;SDS011;724;49.910;12.530;2022-07-31T13:53:48;6.80;;;6.40;;
1460;SDS011;724;49.910;12.530;2022-07-31T13:56:14;7.20;;;6.80;;
1460;SDS011;724;49.910;12.530;2022-07-31T13:58:41;7.07;;;6.67;;
1460;SDS011;724;49.910;12.530;2022-07-31T14:01:08;6.60;;;6.20;;
1460;SDS011;724;49.910;12.530;2022-07-31T14:03:35;6.80;;;6.40;;
1460;SDS011;724;49.910;12.530;2022-07-31T14:06:02;6.70;;;6.30;;
1460;SDS011;724;49.910;12.530;2022-07-31T14:08:30;7.00;;;6.60;;
1460;SDS011;724;49.910;12.530;2022-07-31T14:10:57;6.20;;;5.90;;
1460;SDS011;724;49.910;12.530;2022-07-31T14:13:24;6.73;;;6.33;;
1460;SDS011;724;49.910;12.530;2022-07-31T14:15:52;7.73;;;7.33;;
1460;SDS011;724;49.910;12.530;2022-07-31T14:18:19;7.50;;;7.10;;
1460;SDS011;724;49.910;12.530;2022-07-31T14:20:47;6.10;;;5.80;;
1460;SDS011;724;49.910;12.530;2022-07-31T14:23:14;7.50;;;7.10;;
1460;SDS011;724;49.910;12.530;2022-07-31T14:25:42;7.83;;;7.43;;
1460;SDS011;724;49.910;12.530;2022-07-31T14:28:09;7.80;;;7.40;;
1460;SDS011;724;49.910;12.530;2022-07-31T14:30:36;7.20;;;6.80;;
1460;SDS011;724;49.910;12.530;2022-07-31T14:33:10;7.60;;;7.20;;
1460;SDS011;724;49.910;12.530;2022-07-31T14:35:37;7.30;;;6.90;;
1460;SDS011;724;49.910;12.530;2022-07-31T14:38:04;7.53;;;7.13;;
1460;SDS011;724;49.910;12.530;2022-07-31T14:40:31;7.57;;;7.17;;
1460;SDS011;724;49.910;12.530;2022-07-31T14:43:00;7.80;;;7.40;;
1460;SDS011;724;49.910;12.530;2022-07-31T14:45:27;7.73;;;7.33;;
1460;SDS011;724;49.910;12.530;2022-07-31T14:47:53;7.80;;;7.40;;
1460;SDS011;724;49.910;12.530;2022-07-31T14:50:20;7.60;;;7.20;;
1460;SDS011;724;49.910;12.530;2022-07-31T14:52:48;7.50;;;7.10;;
1460;SDS011;724;49.910;12.530;2022-07-31T14:55:15;7.40;;;7.00;;
1460;SDS011;724;49.910;12.530;2022-07-31T14:57:43;7.50;;;7.10;;
1460;SDS011;724;49.910;12.530;2022-07-31T15:00:12;7.70;;;7.30;;
1460;SDS011;724;49.910;12.530;2022-07-31T15:02:39;7.57;;;7.17;;
1460;SDS011;724;49.910;12.530;2022-07-31T15:05:06;7.97;;;7.57;;
1460;SDS011;724;49.910;12.530;2022-07-31T15:07:34;7.20;;;6.80;;
1460;SDS011;724;49.910;12.530;2022-07-31T15:10:01;7.13;;;6.73;;
1460;SDS011;724;49.910;12.530;2022-07-31T15:12:28;7.30;;;6.90;;
1460;SDS011;724;49.910;12.530;2022-07-31T15:14:55;7.70;;;7.30;;
1460;SDS011;724;49.910;12.530;2022-07-31T15:17:24;8.20;;;7.80;;
1460;SDS011;724;49.910;12.530;2022-07-31T15:19:51;7.90;;;7.50;;
1460;SDS011;724;49.910;12.530;2022-07-31T15:22:17;7.50;;;7.10;;
1460;SDS011;724;49.910;12.530;2022-07-31T15:24:44;7.50;;;7.10;;